createdAt,value
2024-05-09T00:00:49.975Z,6.00
2024-05-09T00:05:12.203Z,7.70
2024-05-09T00:09:14.251Z,7.40
2024-05-09T00:13:16.346Z,5.80
2024-05-09T00:17:18.496Z,17.30
2024-05-09T00:21:20.562Z,6.00
2024-05-09T00:25:22.593Z,6.80
2024-05-09T00:29:24.960Z,4.60
2024-05-09T00:33:27.311Z,12.30
2024-05-09T00:37:29.353Z,6.10
2024-05-09T00:41:31.424Z,8.10
2024-05-09T00:45:34.681Z,3.90
2024-05-09T00:49:36.867Z,5.20
2024-05-09T00:53:39.611Z,4.60
2024-05-09T00:57:42.852Z,4.60
2024-05-09T01:01:46.033Z,5.00
2024-05-09T01:05:48.245Z,5.40
2024-05-09T01:09:50.325Z,5.90
2024-05-09T01:13:52.427Z,10.00
2024-05-09T01:17:55.956Z,5.90
2024-05-09T01:21:58.371Z,3.50
2024-05-09T01:26:00.579Z,4.70
2024-05-09T01:30:06.847Z,9.40
2024-05-09T01:34:11.338Z,4.40
2024-05-09T01:38:16.449Z,6.50
2024-05-09T01:42:18.688Z,6.60
2024-05-09T01:46:21.094Z,10.00
2024-05-09T01:50:34.271Z,6.10
2024-05-09T01:54:41.235Z,5.00
2024-05-09T01:58:43.925Z,6.60
2024-05-09T02:02:46.449Z,9.60
2024-05-09T02:06:48.682Z,13.30
2024-05-09T02:10:51.094Z,10.90
2024-05-09T02:14:53.366Z,18.20
2024-05-09T02:18:57.459Z,7.30
2024-05-09T02:23:00.930Z,9.00
2024-05-09T02:27:03.179Z,11.40
2024-05-09T02:31:05.207Z,16.10
2024-05-09T02:35:07.784Z,13.80
2024-05-09T02:39:09.906Z,15.70
2024-05-09T02:43:12.852Z,14.20
2024-05-09T02:47:15.377Z,7.80
2024-05-09T02:51:17.516Z,8.60
2024-05-09T02:55:19.537Z,7.00
2024-05-09T02:59:21.899Z,4.60
2024-05-09T03:03:24.582Z,8.20
2024-05-09T03:07:26.932Z,7.40
2024-05-09T03:11:29.065Z,6.10
2024-05-09T03:15:32.343Z,6.30
2024-05-09T03:19:35.141Z,8.90
2024-05-09T03:23:41.102Z,17.10
2024-05-09T03:27:43.198Z,6.50
2024-05-09T03:31:45.399Z,4.20
2024-05-09T03:35:48.546Z,5.40
2024-05-09T03:39:51.048Z,10.50
2024-05-09T03:43:53.084Z,5.70
2024-05-09T03:47:55.523Z,6.90
2024-05-09T03:51:57.949Z,6.90
2024-05-09T03:56:00.899Z,5.50
2024-05-09T04:00:05.529Z,8.20
2024-05-09T04:04:16.928Z,5.50
2024-05-09T04:08:19.179Z,6.40
2024-05-09T04:12:21.397Z,7.70
2024-05-09T04:16:24.258Z,5.90
2024-05-09T04:20:37.244Z,5.90
2024-05-09T04:24:42.656Z,6.40
2024-05-09T04:28:44.762Z,10.30
2024-05-09T04:32:47.067Z,9.40
2024-05-09T04:36:49.377Z,6.20
2024-05-09T04:40:51.511Z,9.60
2024-05-09T04:44:56.434Z,5.10
2024-05-09T04:48:59.593Z,7.70
2024-05-09T04:53:01.956Z,5.60
2024-05-09T04:57:04.307Z,11.40
2024-05-09T05:01:06.319Z,6.00
2024-05-09T05:05:08.520Z,5.50
2024-05-09T05:09:10.628Z,6.70
2024-05-09T05:13:19.527Z,8.20
2024-05-09T05:17:23.826Z,7.20
2024-05-09T05:21:26.178Z,10.10
2024-05-09T05:25:28.441Z,5.00
2024-05-09T05:29:30.573Z,8.40
2024-05-09T05:33:32.995Z,3.50
2024-05-09T05:37:35.321Z,2.90
2024-05-09T05:41:37.560Z,9.10
2024-05-09T05:45:39.625Z,6.30
2024-05-09T05:49:41.687Z,5.70
2024-05-09T05:53:44.443Z,7.10
2024-05-09T05:57:46.559Z,6.40
2024-05-09T06:01:48.741Z,5.00
2024-05-09T06:05:50.820Z,4.70
2024-05-09T06:09:52.865Z,4.80
2024-05-09T06:13:54.915Z,7.10
2024-05-09T06:17:57.114Z,6.30
2024-05-09T06:21:59.207Z,3.70
2024-05-09T06:26:01.260Z,5.70
2024-05-09T06:30:03.879Z,4.50
2024-05-09T06:34:06.127Z,7.40
2024-05-09T06:38:08.359Z,8.90
2024-05-09T06:42:10.480Z,4.00
2024-05-09T06:46:12.544Z,7.10
2024-05-09T06:50:23.259Z,8.60
2024-05-09T06:54:26.698Z,3.60
2024-05-09T06:58:28.738Z,3.10
2024-05-09T07:02:31.533Z,6.80
2024-05-09T07:06:33.634Z,8.00
2024-05-09T07:10:36.850Z,4.10
2024-05-09T07:14:39.646Z,5.30
2024-05-09T07:18:41.948Z,4.60
2024-05-09T07:22:44.164Z,6.60
2024-05-09T07:26:46.300Z,7.60
2024-05-09T07:30:48.433Z,3.00
2024-05-09T07:34:50.633Z,3.90
2024-05-09T07:38:52.696Z,3.80
2024-05-09T07:42:54.754Z,3.70
2024-05-09T07:55:07.354Z,4.20
2024-05-09T07:59:09.511Z,2.70
2024-05-09T08:03:11.554Z,2.60
2024-05-09T08:07:13.773Z,5.00
2024-05-09T08:11:16.120Z,8.40
2024-05-09T08:15:18.250Z,6.70
2024-05-09T08:19:20.475Z,3.00
2024-05-09T08:23:23.271Z,6.90
2024-05-09T08:27:26.767Z,4.90
2024-05-09T08:31:28.900Z,4.80
2024-05-09T08:35:31.324Z,3.70
2024-05-09T08:39:33.409Z,3.20
2024-05-09T08:43:38.248Z,9.40
2024-05-09T08:47:44.732Z,1.80
2024-05-09T08:51:47.113Z,4.70
2024-05-09T08:55:50.981Z,4.10
2024-05-09T08:59:53.496Z,4.50
2024-05-09T09:03:56.339Z,7.40
2024-05-09T09:07:58.548Z,4.30
2024-05-09T09:12:00.971Z,7.90
2024-05-09T09:16:03.369Z,2.30
2024-05-09T09:20:09.042Z,9.90
2024-05-09T09:24:13.511Z,5.50
2024-05-09T09:28:15.978Z,4.40
2024-05-09T09:32:18.655Z,3.40
2024-05-09T09:36:20.764Z,2.80
2024-05-09T09:40:32.167Z,2.10
2024-05-09T09:44:42.197Z,3.30
2024-05-09T09:48:46.859Z,3.50
2024-05-09T09:52:51.474Z,2.90
2024-05-09T09:56:57.310Z,3.50
2024-05-09T10:00:59.528Z,5.30
2024-05-09T10:05:02.143Z,1.90
2024-05-09T10:09:04.791Z,5.30
2024-05-09T10:13:08.478Z,2.30
2024-05-09T10:17:11.312Z,5.60
2024-05-09T10:21:20.360Z,2.10
2024-05-09T10:25:23.302Z,1.80
2024-05-09T10:29:25.998Z,1.80
2024-05-09T10:33:51.704Z,5.40
2024-05-09T10:37:55.606Z,4.20
2024-05-09T10:41:57.865Z,2.20
2024-05-09T10:46:00.452Z,4.40
2024-05-09T10:50:06.035Z,3.60
2024-05-09T10:54:10.184Z,10.50
2024-05-09T10:58:18.689Z,2.00
2024-05-09T11:02:21.260Z,4.30
2024-05-09T11:06:23.663Z,5.50
2024-05-09T11:10:33.370Z,3.20
2024-05-09T11:14:36.584Z,6.20
2024-05-09T11:18:39.409Z,2.50
2024-05-09T11:22:41.794Z,6.20
2024-05-09T11:26:43.871Z,5.90
2024-05-09T11:30:47.158Z,10.30
2024-05-09T11:34:49.222Z,2.50
2024-05-09T11:38:51.608Z,6.20
2024-05-09T11:42:53.820Z,4.00
2024-05-09T11:46:56.132Z,15.20
2024-05-09T11:50:58.119Z,4.50
2024-05-09T11:55:01.234Z,8.20
2024-05-09T11:59:03.380Z,4.70
2024-05-09T12:03:06.094Z,4.40
2024-05-09T12:07:12.218Z,3.40
2024-05-09T12:11:15.808Z,2.10
2024-05-09T12:15:18.050Z,2.30
2024-05-09T12:19:20.146Z,3.40
2024-05-09T12:23:22.266Z,1.60
2024-05-09T12:27:24.348Z,5.10
2024-05-09T12:31:26.545Z,7.10
2024-05-09T12:35:29.003Z,2.50
2024-05-09T12:39:31.169Z,2.10
2024-05-09T12:43:33.395Z,2.20
2024-05-09T12:47:35.910Z,7.30
2024-05-09T12:51:38.190Z,9.40
2024-05-09T12:55:48.211Z,3.40
2024-05-09T12:59:56.057Z,2.30
2024-05-09T13:03:58.205Z,1.70
2024-05-09T13:08:01.493Z,8.90
2024-05-09T13:12:04.187Z,3.40
2024-05-09T13:16:06.382Z,3.60
2024-05-09T13:20:12.010Z,1.90
2024-05-09T13:24:20.698Z,2.20
2024-05-09T13:28:22.906Z,4.60
2024-05-09T13:32:25.352Z,3.10
2024-05-09T13:36:27.431Z,4.00
2024-05-09T13:40:33.912Z,2.90
2024-05-09T13:44:38.807Z,6.50
2024-05-09T13:48:41.664Z,2.40
2024-05-09T13:52:43.769Z,6.70
2024-05-09T13:56:45.903Z,3.40
2024-05-09T14:00:49.213Z,3.00
2024-05-09T14:04:52.207Z,4.40
2024-05-09T14:08:54.367Z,2.00
2024-05-09T14:12:56.448Z,3.90
2024-05-09T14:16:58.643Z,3.60
2024-05-09T14:21:01.039Z,2.80
2024-05-09T14:25:03.347Z,2.50
2024-05-09T14:29:05.486Z,10.80
2024-05-09T14:33:08.769Z,3.20
2024-05-09T14:37:11.811Z,4.00
2024-05-09T14:41:14.062Z,6.90
2024-05-09T14:45:16.053Z,5.00
2024-05-09T14:49:18.229Z,4.40
2024-05-09T14:53:20.452Z,8.80
2024-05-09T14:57:22.511Z,1.80
2024-05-09T15:01:24.815Z,6.70
2024-05-09T15:05:27.040Z,5.40
2024-05-09T15:09:35.195Z,3.50
2024-05-09T15:13:37.600Z,3.30
2024-05-09T15:17:40.418Z,3.80
2024-05-09T15:21:42.564Z,4.90
2024-05-09T15:25:45.154Z,2.90
2024-05-09T15:29:47.486Z,6.80
2024-05-09T15:33:49.813Z,3.40
2024-05-09T15:37:52.210Z,1.30
2024-05-09T15:41:56.020Z,2.80
2024-05-09T15:45:58.205Z,3.80
2024-05-09T15:50:00.572Z,2.70
2024-05-09T15:54:02.891Z,4.10
2024-05-09T15:58:06.185Z,2.90
2024-05-09T16:02:11.044Z,4.10
2024-05-09T16:06:13.501Z,6.80
2024-05-09T16:10:22.690Z,7.90
2024-05-09T16:14:27.720Z,6.70
2024-05-09T16:18:29.856Z,2.50
2024-05-09T16:22:32.010Z,3.90
2024-05-09T16:26:34.329Z,3.10
2024-05-09T16:30:36.737Z,7.00
2024-05-09T16:34:38.996Z,1.90
2024-05-09T16:38:42.634Z,1.80
2024-05-09T16:42:45.411Z,4.10
2024-05-09T16:46:47.619Z,7.10
2024-05-09T16:50:49.672Z,5.70
2024-05-09T16:54:51.788Z,8.80
2024-05-09T16:58:54.842Z,7.00
2024-05-09T17:02:57.623Z,4.20
2024-05-09T17:06:59.854Z,3.80
2024-05-09T17:11:02.249Z,7.00
2024-05-09T17:15:04.572Z,5.00
2024-05-09T17:19:07.082Z,4.60
2024-05-09T17:23:13.821Z,5.30
2024-05-09T17:27:16.648Z,5.20
2024-05-09T17:31:19.530Z,9.90
2024-05-09T17:35:21.719Z,4.60
2024-05-09T17:39:23.869Z,1.90
2024-05-09T17:43:26.360Z,2.80
2024-05-09T17:47:28.835Z,6.40
2024-05-09T17:51:31.561Z,16.70
2024-05-09T17:55:34.249Z,12.90
2024-05-09T17:59:39.047Z,9.30
2024-05-09T18:03:43.341Z,4.80
2024-05-09T18:07:45.822Z,13.00
2024-05-09T18:11:48.017Z,7.70
2024-05-09T18:15:50.100Z,9.60
2024-05-09T18:19:52.246Z,15.00
2024-05-09T18:23:57.459Z,26.70
2024-05-09T18:28:04.841Z,27.30
2024-05-09T18:32:07.369Z,11.40
2024-05-09T18:36:10.083Z,10.70
2024-05-09T18:40:20.879Z,7.50
2024-05-09T18:44:30.907Z,9.80
2024-05-09T18:48:34.183Z,11.80
2024-05-09T18:52:36.351Z,17.70
2024-05-09T18:56:38.397Z,15.30
2024-05-09T19:00:42.956Z,9.60
2024-05-09T19:04:47.855Z,12.40
2024-05-09T19:08:50.095Z,17.60
2024-05-09T19:12:52.139Z,12.70
2024-05-09T19:16:54.470Z,7.90
2024-05-09T19:20:56.660Z,5.40
2024-05-09T19:24:58.745Z,12.70
2024-05-09T19:29:00.869Z,10.30
2024-05-09T19:33:03.300Z,11.60
2024-05-09T19:37:05.680Z,8.90
2024-05-09T19:41:08.111Z,21.60
2024-05-09T19:45:10.399Z,13.40
2024-05-09T19:49:12.768Z,15.40
2024-05-09T19:53:15.193Z,12.50
2024-05-09T19:57:18.061Z,26.00
2024-05-09T20:01:20.335Z,8.90
2024-05-09T20:05:22.657Z,11.90
2024-05-09T20:09:25.038Z,6.80
2024-05-09T20:13:27.292Z,14.10
2024-05-09T20:17:29.416Z,9.60
2024-05-09T20:21:31.597Z,10.40
2024-05-09T20:25:33.653Z,11.90
2024-05-09T20:29:35.725Z,9.60
2024-05-09T20:33:38.105Z,7.60
2024-05-09T20:37:40.463Z,9.20
2024-05-09T20:41:43.363Z,5.70
2024-05-09T20:45:45.428Z,9.70
2024-05-09T20:49:47.525Z,13.40
2024-05-09T20:53:49.736Z,12.60
2024-05-09T20:57:51.936Z,11.40
2024-05-09T21:01:54.116Z,13.00
2024-05-09T21:05:56.356Z,10.20
2024-05-09T21:09:58.590Z,14.50
2024-05-09T21:14:00.598Z,20.90
2024-05-09T21:18:03.120Z,8.50
2024-05-09T21:22:05.279Z,30.80
2024-05-09T21:26:07.381Z,41.20
2024-05-09T21:30:15.968Z,29.70
2024-05-09T21:34:24.862Z,21.00
2024-05-09T21:38:27.247Z,18.40
2024-05-09T21:42:29.312Z,12.90
2024-05-09T21:46:31.420Z,24.50
2024-05-09T21:50:39.701Z,32.10
2024-05-09T21:54:43.840Z,20.90
2024-05-09T21:58:45.943Z,14.20
2024-05-09T22:02:47.997Z,23.50
2024-05-09T22:06:50.132Z,20.20
2024-05-09T22:10:52.312Z,25.20
2024-05-09T22:14:54.519Z,18.00
2024-05-09T22:18:56.658Z,26.00
2024-05-09T22:22:58.866Z,21.50
2024-05-09T22:27:00.951Z,19.70
2024-05-09T22:31:03.156Z,24.20
2024-05-09T22:35:07.449Z,23.00
2024-05-09T22:39:09.522Z,23.10
2024-05-09T22:43:11.797Z,27.50
2024-05-09T22:47:14.055Z,20.70
2024-05-09T22:51:16.159Z,18.80
2024-05-09T22:55:18.266Z,26.50
2024-05-09T22:59:20.295Z,17.00
2024-05-09T23:03:22.943Z,25.70
2024-05-09T23:07:27.142Z,19.80
2024-05-09T23:11:29.209Z,20.70
2024-05-09T23:15:31.456Z,14.80
2024-05-09T23:19:34.266Z,20.30
2024-05-09T23:23:36.519Z,24.10
2024-05-09T23:27:38.710Z,16.10
2024-05-09T23:31:41.112Z,14.20
2024-05-09T23:35:43.681Z,22.50
2024-05-09T23:39:46.139Z,17.20
2024-05-09T23:43:48.212Z,21.90
2024-05-09T23:47:50.334Z,14.30
2024-05-09T23:51:52.461Z,14.60
2024-05-09T23:55:54.517Z,12.90
2024-05-09T23:59:56.782Z,15.00
